sensor_id;sensor_type;location;lat;lon;timestamp;pressure;altitude;pressure_sealevel;temperature;humidity
64023;BME280;50264;52.088;5.296;2023-01-28T00:01:04;102969.0;;;3.89;82.75
64023;BME280;50264;52.088;5.296;2023-01-28T00:02:41;102968.0;;;3.91;83.31
64023;BME280;50264;52.088;5.296;2023-01-28T00:04:17;102968.0;;;3.94;82.69
64023;BME280;50264;52.088;5.296;2023-01-28T00:07:38;102966.00000000001;;;3.91;82.36
64023;BME280;50264;52.088;5.296;2023-01-28T00:09:14;102967.0;;;3.93;81.8
64023;BME280;50264;52.088;5.296;2023-01-28T00:10:50;102971.0;;;4.0;81.62
64023;BME280;50264;52.088;5.296;2023-01-28T00:12:26;102973.0;;;3.99;80.69
64023;BME280;50264;52.088;5.296;2023-01-28T00:15:40;102978.0;;;3.87;81.58
64023;BME280;50264;52.088;5.296;2023-01-28T00:17:17;102979.0;;;3.83;80.94
64023;BME280;50264;52.088;5.296;2023-01-28T00:18:53;102986.99999999999;;;3.79;81.55
64023;BME280;50264;52.088;5.296;2023-01-28T00:22:07;102983.0;;;3.8;81.09
64023;BME280;50264;52.088;5.296;2023-01-28T00:23:47;102979.0;;;3.88;81.58
64023;BME280;50264;52.088;5.296;2023-01-28T00:25:26;102981.0;;;3.78;82.57
64023;BME280;50264;52.088;5.296;2023-01-28T00:27:02;102988.00000000001;;;3.78;81.74
64023;BME280;50264;52.088;5.296;2023-01-28T00:30:16;102982.0;;;3.68;80.75
64023;BME280;50264;52.088;5.296;2023-01-28T00:31:53;102981.0;;;3.6;80.52
64023;BME280;50264;52.088;5.296;2023-01-28T00:33:31;102983.99999999999;;;3.69;79.8
64023;BME280;50264;52.088;5.296;2023-01-28T00:36:44;102983.0;;;3.75;79.83
64023;BME280;50264;52.088;5.296;2023-01-28T00:38:20;102983.0;;;3.82;80.81
64023;BME280;50264;52.088;5.296;2023-01-28T00:39:57;102983.0;;;3.8;80.81
64023;BME280;50264;52.088;5.296;2023-01-28T00:43:09;102982.0;;;3.76;81.58
64023;BME280;50264;52.088;5.296;2023-01-28T00:44:45;102976.0;;;3.76;81.5
64023;BME280;50264;52.088;5.296;2023-01-28T00:46:22;102983.0;;;3.77;81.44
64023;BME280;50264;52.088;5.296;2023-01-28T00:47:59;102980.0;;;3.83;81.27
64023;BME280;50264;52.088;5.296;2023-01-28T00:51:13;102981.0;;;3.85;80.5
64023;BME280;50264;52.088;5.296;2023-01-28T00:52:51;102976.0;;;3.86;81.23
64023;BME280;50264;52.088;5.296;2023-01-28T00:54:27;102982.0;;;3.8;81.08
64023;BME280;50264;52.088;5.296;2023-01-28T00:57:42;102983.99999999999;;;3.7;80.05
64023;BME280;50264;52.088;5.296;2023-01-28T00:59:18;102984.99999999999;;;3.83;80.72
64023;BME280;50264;52.088;5.296;2023-01-28T01:00:55;102984.99999999999;;;3.84;81.27
64023;BME280;50264;52.088;5.296;2023-01-28T01:04:08;102983.99999999999;;;3.79;81.36
64023;BME280;50264;52.088;5.296;2023-01-28T01:05:44;102978.0;;;3.79;80.22
64023;BME280;50264;52.088;5.296;2023-01-28T01:07:22;102974.0;;;3.77;79.78
64023;BME280;50264;52.088;5.296;2023-01-28T01:09:00;102976.0;;;3.73;81.3
64023;BME280;50264;52.088;5.296;2023-01-28T01:12:13;102972.0;;;3.67;81.69
64023;BME280;50264;52.088;5.296;2023-01-28T01:13:51;102966.00000000001;;;3.67;80.86
64023;BME280;50264;52.088;5.296;2023-01-28T01:15:28;102967.0;;;3.71;80.86
64023;BME280;50264;52.088;5.296;2023-01-28T01:18:41;102970.0;;;3.7;80.91
64023;BME280;50264;52.088;5.296;2023-01-28T01:20:20;102974.0;;;3.74;81.34
64023;BME280;50264;52.088;5.296;2023-01-28T01:21:57;102975.0;;;3.68;81.14
64023;BME280;50264;52.088;5.296;2023-01-28T01:23:33;102978.0;;;3.7;81.31
64023;BME280;50264;52.088;5.296;2023-01-28T01:26:49;102977.0;;;3.63;81.83
64023;BME280;50264;52.088;5.296;2023-01-28T01:28:25;102978.0;;;3.61;80.91
64023;BME280;50264;52.088;5.296;2023-01-28T01:30:01;102976.0;;;3.69;80.83
64023;BME280;50264;52.088;5.296;2023-01-28T01:33:15;102979.0;;;3.76;79.92
64023;BME280;50264;52.088;5.296;2023-01-28T01:34:51;102977.0;;;3.71;80.69
64023;BME280;50264;52.088;5.296;2023-01-28T01:36:28;102981.0;;;3.68;80.02
64023;BME280;50264;52.088;5.296;2023-01-28T01:39:42;102980.0;;;3.66;79.75
64023;BME280;50264;52.088;5.296;2023-01-28T01:41:23;102981.0;;;3.7;80.42
64023;BME280;50264;52.088;5.296;2023-01-28T01:43:00;102980.0;;;3.74;79.47
64023;BME280;50264;52.088;5.296;2023-01-28T01:44:56;102981.0;;;3.77;81.27
64023;BME280;50264;52.088;5.296;2023-01-28T01:46:36;102981.0;;;3.75;80.75
64023;BME280;50264;52.088;5.296;2023-01-28T01:50:01;102981.0;;;3.7;81.96
64023;BME280;50264;52.088;5.296;2023-01-28T01:51:42;102983.0;;;3.64;81.48
64023;BME280;50264;52.088;5.296;2023-01-28T01:53:22;102984.99999999999;;;3.62;81.16
64023;BME280;50264;52.088;5.296;2023-01-28T01:55:05;102988.00000000001;;;3.59;80.33
64023;BME280;50264;52.088;5.296;2023-01-28T01:58:29;102995.0;;;3.58;81.28
64023;BME280;50264;52.088;5.296;2023-01-28T02:00:09;102994.0;;;3.6;80.19
64023;BME280;50264;52.088;5.296;2023-01-28T02:01:46;102995.0;;;3.61;80.12
64023;BME280;50264;52.088;5.296;2023-01-28T02:03:27;102991.00000000001;;;3.54;80.13
64023;BME280;50264;52.088;5.296;2023-01-28T02:06:45;102990.00000000001;;;3.58;81.47
64023;BME280;50264;52.088;5.296;2023-01-28T02:08:22;102991.00000000001;;;3.61;80.41
64023;BME280;50264;52.088;5.296;2023-01-28T02:09:58;102991.00000000001;;;3.61;81.19
64023;BME280;50264;52.088;5.296;2023-01-28T02:13:13;102986.99999999999;;;3.77;81.3
64023;BME280;50264;52.088;5.296;2023-01-28T02:22:00;102992.0;;;3.61;81.59
64023;BME280;50264;52.088;5.296;2023-01-28T02:22:25;102988.00000000001;;;3.53;82.44
64023;BME280;50264;52.088;5.296;2023-01-28T02:24:22;102982.0;;;3.52;82.03
64023;BME280;50264;52.088;5.296;2023-01-28T02:27:23;102984.99999999999;;;3.52;83.21
64023;BME280;50264;52.088;5.296;2023-01-28T02:29:08;102990.00000000001;;;3.47;82.78
64023;BME280;50264;52.088;5.296;2023-01-28T02:30:53;102997.0;;;3.51;83.6
64023;BME280;50264;52.088;5.296;2023-01-28T02:32:41;103002.0;;;3.49;84.74
64023;BME280;50264;52.088;5.296;2023-01-28T02:36:16;103001.0;;;3.45;83.99
64023;BME280;50264;52.088;5.296;2023-01-28T02:38:05;103001.0;;;3.41;82.6
64023;BME280;50264;52.088;5.296;2023-01-28T02:39:48;102998.0;;;3.44;83.55
64023;BME280;50264;52.088;5.296;2023-01-28T02:41:33;103001.0;;;3.5;81.93
64023;BME280;50264;52.088;5.296;2023-01-28T02:43:13;102999.0;;;3.39;81.69
64023;BME280;50264;52.088;5.296;2023-01-28T02:47:59;103004.0;;;3.4;82.31
64023;BME280;50264;52.088;5.296;2023-01-28T02:49:40;103001.0;;;3.46;83.41
64023;BME280;50264;52.088;5.296;2023-01-28T02:53:44;103005.0;;;3.51;82.01
64023;BME280;50264;52.088;5.296;2023-01-28T02:55:53;103007.0;;;3.54;82.07
64023;BME280;50264;52.088;5.296;2023-01-28T02:59:35;103002.0;;;3.52;83.12
64023;BME280;50264;52.088;5.296;2023-01-28T03:01:19;103005.0;;;3.55;82.12
64023;BME280;50264;52.088;5.296;2023-01-28T03:03:10;103000.0;;;3.68;83.08
64023;BME280;50264;52.088;5.296;2023-01-28T03:04:54;102992.0;;;3.65;82.5
64023;BME280;50264;52.088;5.296;2023-01-28T03:06:40;102989.00000000001;;;3.62;82.45
64023;BME280;50264;52.088;5.296;2023-01-28T03:09:26;102982.0;;;3.59;82.65
64023;BME280;50264;52.088;5.296;2023-01-28T03:36:55;102996.0;;;3.39;82.67
64023;BME280;50264;52.088;5.296;2023-01-28T03:38:33;102992.0;;;3.37;81.86
64023;BME280;50264;52.088;5.296;2023-01-28T03:40:19;102997.0;;;3.42;81.97
64023;BME280;50264;52.088;5.296;2023-01-28T03:41:58;102992.0;;;3.39;81.48
64023;BME280;50264;52.088;5.296;2023-01-28T03:45:13;102992.0;;;3.41;80.81
64023;BME280;50264;52.088;5.296;2023-01-28T03:46:50;102991.00000000001;;;3.33;82.13
64023;BME280;50264;52.088;5.296;2023-01-28T03:48:27;102992.0;;;3.34;81.47
64023;BME280;50264;52.088;5.296;2023-01-28T03:50:07;102989.00000000001;;;3.44;81.91
64023;BME280;50264;52.088;5.296;2023-01-28T03:53:22;102986.99999999999;;;3.33;80.87
64023;BME280;50264;52.088;5.296;2023-01-28T03:54:58;102992.0;;;3.49;80.61
64023;BME280;50264;52.088;5.296;2023-01-28T03:56:36;102997.0;;;3.46;81.98
64023;BME280;50264;52.088;5.296;2023-01-28T03:59:52;102997.0;;;3.39;82.42
64023;BME280;50264;52.088;5.296;2023-01-28T04:01:29;102999.0;;;3.4;82.23
64023;BME280;50264;52.088;5.296;2023-01-28T04:03:16;102993.0;;;3.36;81.39
64023;BME280;50264;52.088;5.296;2023-01-28T04:04:53;102988.00000000001;;;3.35;82.04
64023;BME280;50264;52.088;5.296;2023-01-28T04:08:06;102996.0;;;3.31;81.91
64023;BME280;50264;52.088;5.296;2023-01-28T04:09:43;103000.0;;;3.33;82.66
64023;BME280;50264;52.088;5.296;2023-01-28T04:11:20;103001.0;;;3.23;81.59
64023;BME280;50264;52.088;5.296;2023-01-28T04:12:56;103003.0;;;3.3;82.1
64023;BME280;50264;52.088;5.296;2023-01-28T04:16:09;102996.0;;;3.29;81.7
64023;BME280;50264;52.088;5.296;2023-01-28T04:17:45;103005.0;;;3.29;81.37
64023;BME280;50264;52.088;5.296;2023-01-28T04:22:36;103018.0;;;3.33;81.25
64023;BME280;50264;52.088;5.296;2023-01-28T04:24:12;103022.0;;;3.37;82.0
64023;BME280;50264;52.088;5.296;2023-01-28T04:25:49;103021.0;;;3.27;81.48
64023;BME280;50264;52.088;5.296;2023-01-28T04:29:02;103013.00000000001;;;3.33;81.92
64023;BME280;50264;52.088;5.296;2023-01-28T04:30:38;103020.0;;;3.37;81.87
64023;BME280;50264;52.088;5.296;2023-01-28T04:32:14;103027.0;;;3.32;81.98
64023;BME280;50264;52.088;5.296;2023-01-28T04:33:51;103036.99999999999;;;3.35;82.05
64023;BME280;50264;52.088;5.296;2023-01-28T04:37:03;103034.99999999999;;;3.27;81.66
64023;BME280;50264;52.088;5.296;2023-01-28T04:38:39;103033.0;;;3.33;82.08
64023;BME280;50264;52.088;5.296;2023-01-28T04:40:16;103036.99999999999;;;3.35;82.32
64023;BME280;50264;52.088;5.296;2023-01-28T04:43:28;103042.0;;;3.26;82.98
64023;BME280;50264;52.088;5.296;2023-01-28T04:45:06;103044.0;;;3.26;82.14
64023;BME280;50264;52.088;5.296;2023-01-28T04:46:43;103040.00000000001;;;3.28;78.8
64023;BME280;50264;52.088;5.296;2023-01-28T04:49:55;103033.0;;;3.24;80.27
64023;BME280;50264;52.088;5.296;2023-01-28T04:51:31;103024.0;;;3.3;82.39
64023;BME280;50264;52.088;5.296;2023-01-28T04:53:07;103017.0;;;3.33;80.97
64023;BME280;50264;52.088;5.296;2023-01-28T04:56:22;103025.0;;;3.42;80.41
64023;BME280;50264;52.088;5.296;2023-01-28T04:57:58;103022.0;;;3.4;80.38
64023;BME280;50264;52.088;5.296;2023-01-28T04:59:34;103024.0;;;3.33;81.77
64023;BME280;50264;52.088;5.296;2023-01-28T05:01:10;103019.0;;;3.29;81.44
64023;BME280;50264;52.088;5.296;2023-01-28T05:04:22;103017.0;;;3.21;81.66
64023;BME280;50264;52.088;5.296;2023-01-28T05:05:58;103011.99999999999;;;3.21;77.92
64023;BME280;50264;52.088;5.296;2023-01-28T05:07:35;103017.0;;;3.24;78.72
64023;BME280;50264;52.088;5.296;2023-01-28T05:10:48;103015.00000000001;;;3.18;79.69
64023;BME280;50264;52.088;5.296;2023-01-28T05:14:01;103018.0;;;3.22;80.53
64023;BME280;50264;52.088;5.296;2023-01-28T05:17:13;103018.0;;;3.18;81.22
64023;BME280;50264;52.088;5.296;2023-01-28T05:18:50;103009.99999999999;;;3.22;80.58
64023;BME280;50264;52.088;5.296;2023-01-28T05:20:26;103015.00000000001;;;3.19;80.95
64023;BME280;50264;52.088;5.296;2023-01-28T05:22:02;103008.99999999999;;;3.2;81.61
64023;BME280;50264;52.088;5.296;2023-01-28T05:25:14;103013.00000000001;;;3.16;81.03
64023;BME280;50264;52.088;5.296;2023-01-28T05:26:50;103018.0;;;3.11;81.59
64023;BME280;50264;52.088;5.296;2023-01-28T05:28:27;103024.0;;;3.14;81.61
64023;BME280;50264;52.088;5.296;2023-01-28T05:31:43;103021.0;;;3.13;80.91
64023;BME280;50264;52.088;5.296;2023-01-28T05:33:19;103017.0;;;3.09;80.3
64023;BME280;50264;52.088;5.296;2023-01-28T05:34:55;103017.0;;;3.11;80.91
64023;BME280;50264;52.088;5.296;2023-01-28T05:38:07;103017.0;;;3.07;79.66
64023;BME280;50264;52.088;5.296;2023-01-28T05:39:43;103027.0;;;3.04;80.97
64023;BME280;50264;52.088;5.296;2023-01-28T05:41:20;103023.0;;;2.98;81.38
64023;BME280;50264;52.088;5.296;2023-01-28T05:42:56;103018.0;;;2.97;80.58
64023;BME280;50264;52.088;5.296;2023-01-28T05:46:08;103018.0;;;3.03;78.2
64023;BME280;50264;52.088;5.296;2023-01-28T05:47:44;103021.0;;;3.17;80.2
64023;BME280;50264;52.088;5.296;2023-01-28T05:49:21;103018.0;;;3.12;79.03
64023;BME280;50264;52.088;5.296;2023-01-28T05:52:34;103016.00000000001;;;3.15;77.77
64023;BME280;50264;52.088;5.296;2023-01-28T05:54:11;103017.0;;;3.21;78.91
64023;BME280;50264;52.088;5.296;2023-01-28T05:55:47;103015.00000000001;;;3.19;80.19
64023;BME280;50264;52.088;5.296;2023-01-28T05:59:00;103018.0;;;3.21;81.92
64023;BME280;50264;52.088;5.296;2023-01-28T06:00:37;103018.0;;;3.14;81.5
64023;BME280;50264;52.088;5.296;2023-01-28T06:02:13;103022.0;;;3.03;80.98
64023;BME280;50264;52.088;5.296;2023-01-28T06:03:50;103017.0;;;3.07;81.05
64023;BME280;50264;52.088;5.296;2023-01-28T06:07:02;103018.0;;;3.09;79.91
64023;BME280;50264;52.088;5.296;2023-01-28T06:08:38;103016.00000000001;;;3.13;80.3
64023;BME280;50264;52.088;5.296;2023-01-28T06:10:17;103015.00000000001;;;3.07;80.41
64023;BME280;50264;52.088;5.296;2023-01-28T06:13:29;103018.0;;;2.98;80.66
64023;BME280;50264;52.088;5.296;2023-01-28T06:15:06;103019.0;;;2.98;81.3
64023;BME280;50264;52.088;5.296;2023-01-28T06:16:43;103020.0;;;3.04;81.33
64023;BME280;50264;52.088;5.296;2023-01-28T06:19:55;103027.0;;;3.06;81.37
64023;BME280;50264;52.088;5.296;2023-01-28T06:21:31;103023.0;;;2.96;80.64
64023;BME280;50264;52.088;5.296;2023-01-28T06:23:08;103020.0;;;2.97;79.94
64023;BME280;50264;52.088;5.296;2023-01-28T06:24:45;103024.0;;;2.95;77.42
64023;BME280;50264;52.088;5.296;2023-01-28T06:27:57;103021.0;;;2.96;78.73
64023;BME280;50264;52.088;5.296;2023-01-28T06:29:34;103024.0;;;2.9;78.47
64023;BME280;50264;52.088;5.296;2023-01-28T06:31:11;103021.0;;;2.92;79.22
64023;BME280;50264;52.088;5.296;2023-01-28T06:34:29;103024.0;;;2.96;78.88
64023;BME280;50264;52.088;5.296;2023-01-28T06:36:06;103017.0;;;2.93;78.38
64023;BME280;50264;52.088;5.296;2023-01-28T06:37:44;103026.0;;;3.01;77.91
64023;BME280;50264;52.088;5.296;2023-01-28T06:40:57;103033.0;;;2.99;77.38
64023;BME280;50264;52.088;5.296;2023-01-28T06:42:33;103039.00000000001;;;2.95;75.44
64023;BME280;50264;52.088;5.296;2023-01-28T06:44:10;103042.0;;;2.81;76.36
64023;BME280;50264;52.088;5.296;2023-01-28T06:45:47;103046.0;;;2.87;77.23
64023;BME280;50264;52.088;5.296;2023-01-28T06:48:59;103041.00000000001;;;2.79;77.3
64023;BME280;50264;52.088;5.296;2023-01-28T06:50:35;103044.0;;;2.87;78.09
64023;BME280;50264;52.088;5.296;2023-01-28T06:52:11;103044.0;;;2.85;77.11
64023;BME280;50264;52.088;5.296;2023-01-28T06:55:23;103045.0;;;2.87;76.28
64023;BME280;50264;52.088;5.296;2023-01-28T06:57:00;103051.0;;;2.85;77.39
64023;BME280;50264;52.088;5.296;2023-01-28T06:58:36;103045.0;;;2.89;77.61
64023;BME280;50264;52.088;5.296;2023-01-28T07:01:51;103055.0;;;2.91;77.8
64023;BME280;50264;52.088;5.296;2023-01-28T07:03:27;103059.99999999999;;;2.87;77.86
64023;BME280;50264;52.088;5.296;2023-01-28T07:05:04;103058.0;;;2.81;78.55
64023;BME280;50264;52.088;5.296;2023-01-28T07:06:40;103055.0;;;2.83;77.89
64023;BME280;50264;52.088;5.296;2023-01-28T07:09:53;103058.0;;;2.78;77.58
64023;BME280;50264;52.088;5.296;2023-01-28T07:11:29;103061.99999999999;;;2.83;79.17
64023;BME280;50264;52.088;5.296;2023-01-28T07:13:05;103058.0;;;2.87;78.88
64023;BME280;50264;52.088;5.296;2023-01-28T07:16:17;103051.0;;;2.85;78.33
64023;BME280;50264;52.088;5.296;2023-01-28T07:17:53;103050.0;;;2.82;77.5
64023;BME280;50264;52.088;5.296;2023-01-28T07:19:29;103052.0;;;2.88;78.49
64023;BME280;50264;52.088;5.296;2023-01-28T07:22:43;103061.99999999999;;;2.88;76.77
64023;BME280;50264;52.088;5.296;2023-01-28T07:24:20;103065.00000000001;;;2.8;76.11
64023;BME280;50264;52.088;5.296;2023-01-28T07:26:00;103069.0;;;2.79;77.66
64023;BME280;50264;52.088;5.296;2023-01-28T07:27:36;103069.0;;;2.84;78.41
64023;BME280;50264;52.088;5.296;2023-01-28T07:30:49;103071.0;;;2.86;77.73
64023;BME280;50264;52.088;5.296;2023-01-28T07:32:26;103073.0;;;2.97;77.53
64023;BME280;50264;52.088;5.296;2023-01-28T07:34:02;103067.0;;;3.01;78.3
64023;BME280;50264;52.088;5.296;2023-01-28T07:37:15;103065.00000000001;;;3.04;77.14
64023;BME280;50264;52.088;5.296;2023-01-28T07:38:51;103070.0;;;3.03;76.27
64023;BME280;50264;52.088;5.296;2023-01-28T07:40:27;103074.0;;;2.97;76.97
64023;BME280;50264;52.088;5.296;2023-01-28T07:43:40;103076.0;;;2.82;78.77
64023;BME280;50264;52.088;5.296;2023-01-28T07:45:16;103079.0;;;2.8;77.72
64023;BME280;50264;52.088;5.296;2023-01-28T07:46:53;103080.0;;;2.82;77.86
64023;BME280;50264;52.088;5.296;2023-01-28T07:48:30;103082.0;;;2.86;78.55
64023;BME280;50264;52.088;5.296;2023-01-28T07:51:46;103090.00000000001;;;2.89;78.45
64023;BME280;50264;52.088;5.296;2023-01-28T07:53:22;103083.0;;;2.94;77.64
64023;BME280;50264;52.088;5.296;2023-01-28T07:54:58;103089.00000000001;;;2.94;76.55
64023;BME280;50264;52.088;5.296;2023-01-28T07:58:11;103098.0;;;2.92;78.61
64023;BME280;50264;52.088;5.296;2023-01-28T07:59:48;103092.0;;;2.87;77.91
64023;BME280;50264;52.088;5.296;2023-01-28T08:01:24;103089.00000000001;;;3.03;78.83
64023;BME280;50264;52.088;5.296;2023-01-28T08:04:41;103092.0;;;3.04;77.44
64023;BME280;50264;52.088;5.296;2023-01-28T08:06:17;103091.00000000001;;;3.11;77.86
64023;BME280;50264;52.088;5.296;2023-01-28T08:07:53;103101.0;;;3.19;78.12
64023;BME280;50264;52.088;5.296;2023-01-28T08:09:29;103101.0;;;3.11;79.78
64023;BME280;50264;52.088;5.296;2023-01-28T08:12:50;103096.0;;;3.11;79.11
64023;BME280;50264;52.088;5.296;2023-01-28T08:14:26;103095.0;;;3.23;78.91
64023;BME280;50264;52.088;5.296;2023-01-28T08:16:04;103094.0;;;3.14;76.84
64023;BME280;50264;52.088;5.296;2023-01-28T08:19:17;103091.00000000001;;;3.23;78.42
64023;BME280;50264;52.088;5.296;2023-01-28T08:20:54;103094.0;;;3.16;77.17
64023;BME280;50264;52.088;5.296;2023-01-28T08:22:31;103097.0;;;3.16;75.94
64023;BME280;50264;52.088;5.296;2023-01-28T08:24:07;103096.0;;;3.25;77.56
64023;BME280;50264;52.088;5.296;2023-01-28T08:27:20;103104.0;;;3.18;77.47
64023;BME280;50264;52.088;5.296;2023-01-28T08:28:56;103107.0;;;3.16;76.8
64023;BME280;50264;52.088;5.296;2023-01-28T08:30:33;103104.0;;;3.26;76.61
64023;BME280;50264;52.088;5.296;2023-01-28T08:33:46;103109.99999999999;;;3.26;77.59
64023;BME280;50264;52.088;5.296;2023-01-28T08:35:22;103108.99999999999;;;3.19;76.41
64023;BME280;50264;52.088;5.296;2023-01-28T08:36:58;103113.00000000001;;;3.18;76.62
64023;BME280;50264;52.088;5.296;2023-01-28T08:40:11;103116.00000000001;;;3.25;76.72
64023;BME280;50264;52.088;5.296;2023-01-28T08:41:48;103113.00000000001;;;3.36;76.92
64023;BME280;50264;52.088;5.296;2023-01-28T08:43:24;103108.0;;;3.4;78.23
64023;BME280;50264;52.088;5.296;2023-01-28T08:45:01;103118.0;;;3.42;78.22
64023;BME280;50264;52.088;5.296;2023-01-28T08:48:14;103118.0;;;3.32;77.22
64023;BME280;50264;52.088;5.296;2023-01-28T08:49:52;103118.0;;;3.28;76.02
64023;BME280;50264;52.088;5.296;2023-01-28T08:51:28;103124.0;;;3.24;76.09
64023;BME280;50264;52.088;5.296;2023-01-28T08:54:45;103125.0;;;3.41;77.05
64023;BME280;50264;52.088;5.296;2023-01-28T08:56:21;103134.99999999999;;;3.35;76.84
64023;BME280;50264;52.088;5.296;2023-01-28T08:58:01;103133.0;;;3.43;76.16
64023;BME280;50264;52.088;5.296;2023-01-28T08:59:44;103139.00000000001;;;3.44;77.19
64023;BME280;50264;52.088;5.296;2023-01-28T09:02:56;103142.0;;;3.38;74.99
64023;BME280;50264;52.088;5.296;2023-01-28T09:04:32;103136.99999999999;;;3.38;76.33
64023;BME280;50264;52.088;5.296;2023-01-28T09:06:08;103141.00000000001;;;3.46;75.77
64023;BME280;50264;52.088;5.296;2023-01-28T09:09:21;103133.99999999999;;;3.45;74.66
64023;BME280;50264;52.088;5.296;2023-01-28T09:10:58;103139.00000000001;;;3.43;76.08
64023;BME280;50264;52.088;5.296;2023-01-28T09:12:35;103146.0;;;3.4;74.8
64023;BME280;50264;52.088;5.296;2023-01-28T09:17:26;103141.00000000001;;;3.45;75.81
64023;BME280;50264;52.088;5.296;2023-01-28T09:19:02;103143.0;;;3.52;75.61
64023;BME280;50264;52.088;5.296;2023-01-28T09:20:38;103144.0;;;3.57;76.16
64023;BME280;50264;52.088;5.296;2023-01-28T09:23:54;103147.0;;;3.62;74.37
64023;BME280;50264;52.088;5.296;2023-01-28T09:25:31;103150.0;;;3.62;74.72
64023;BME280;50264;52.088;5.296;2023-01-28T09:27:08;103158.0;;;3.78;73.41
64023;BME280;50264;52.088;5.296;2023-01-28T09:30:23;103147.0;;;3.69;75.05
64023;BME280;50264;52.088;5.296;2023-01-28T09:32:00;103152.0;;;3.63;73.78
64023;BME280;50264;52.088;5.296;2023-01-28T09:33:39;103161.99999999999;;;3.63;74.8
64023;BME280;50264;52.088;5.296;2023-01-28T09:35:17;103158.99999999999;;;3.66;74.83
64023;BME280;50264;52.088;5.296;2023-01-28T09:38:30;103148.0;;;3.78;75.17
64023;BME280;50264;52.088;5.296;2023-01-28T09:40:11;103157.0;;;3.71;74.8
64023;BME280;50264;52.088;5.296;2023-01-28T09:42:01;103167.0;;;3.83;75.59
64023;BME280;50264;52.088;5.296;2023-01-28T09:44:03;103169.0;;;3.83;75.17
64023;BME280;50264;52.088;5.296;2023-01-28T09:45:44;103166.00000000001;;;3.85;74.27
64023;BME280;50264;52.088;5.296;2023-01-28T09:49:11;103165.00000000001;;;3.8;73.55
64023;BME280;50264;52.088;5.296;2023-01-28T09:50:53;103156.0;;;3.95;73.64
64023;BME280;50264;52.088;5.296;2023-01-28T09:52:33;103154.0;;;3.82;74.41
64023;BME280;50264;52.088;5.296;2023-01-28T09:54:22;103157.0;;;3.77;74.44
64023;BME280;50264;52.088;5.296;2023-01-28T09:56:03;103151.0;;;3.71;76.37
64023;BME280;50264;52.088;5.296;2023-01-28T09:59:24;103153.0;;;3.71;75.42
64023;BME280;50264;52.088;5.296;2023-01-28T10:01:12;103155.0;;;3.73;74.91
64023;BME280;50264;52.088;5.296;2023-01-28T10:03:25;103158.0;;;3.67;72.67
64023;BME280;50264;52.088;5.296;2023-01-28T10:05:16;103169.0;;;3.74;73.17
64023;BME280;50264;52.088;5.296;2023-01-28T10:07:05;103172.0;;;3.8;73.89
64023;BME280;50264;52.088;5.296;2023-01-28T10:09:25;103170.0;;;3.84;74.33
64023;BME280;50264;52.088;5.296;2023-01-28T10:11:14;103167.0;;;3.93;73.91
64023;BME280;50264;52.088;5.296;2023-01-28T10:13:03;103173.0;;;3.91;71.61
64023;BME280;50264;52.088;5.296;2023-01-28T10:16:43;103172.0;;;3.93;72.05
64023;BME280;50264;52.088;5.296;2023-01-28T10:18:29;103173.0;;;3.99;76.03
64023;BME280;50264;52.088;5.296;2023-01-28T10:20:17;103168.0;;;3.96;72.86
64023;BME280;50264;52.088;5.296;2023-01-28T10:22:00;103169.0;;;4.01;72.02
64023;BME280;50264;52.088;5.296;2023-01-28T10:23:45;103168.0;;;4.12;74.58
64023;BME280;50264;52.088;5.296;2023-01-28T10:25:31;103157.0;;;4.16;72.47
64023;BME280;50264;52.088;5.296;2023-01-28T10:28:55;103152.0;;;4.33;72.19
64023;BME280;50264;52.088;5.296;2023-01-28T10:30:34;103147.0;;;4.29;69.97
64023;BME280;50264;52.088;5.296;2023-01-28T10:32:26;103151.0;;;4.49;69.88
64023;BME280;50264;52.088;5.296;2023-01-28T10:34:04;103154.0;;;4.64;70.03
64023;BME280;50264;52.088;5.296;2023-01-28T10:37:18;103151.0;;;4.7;71.24
64023;BME280;50264;52.088;5.296;2023-01-28T10:38:55;103145.0;;;4.78;68.91
64023;BME280;50264;52.088;5.296;2023-01-28T10:40:31;103142.0;;;4.72;68.61
64023;BME280;50264;52.088;5.296;2023-01-28T10:42:21;103146.0;;;4.62;69.62
64023;BME280;50264;52.088;5.296;2023-01-28T10:45:42;103151.0;;;4.78;69.73
64023;BME280;50264;52.088;5.296;2023-01-28T10:47:34;103147.0;;;4.88;69.66
64023;BME280;50264;52.088;5.296;2023-01-28T10:49:15;103142.0;;;5.04;68.97
64023;BME280;50264;52.088;5.296;2023-01-28T10:50:55;103136.99999999999;;;5.08;68.52
64023;BME280;50264;52.088;5.296;2023-01-28T10:52:32;103136.99999999999;;;4.99;68.56
64023;BME280;50264;52.088;5.296;2023-01-28T10:56:04;103129.0;;;5.03;69.34
64023;BME280;50264;52.088;5.296;2023-01-28T10:57:43;103123.0;;;5.13;68.34
64023;BME280;50264;52.088;5.296;2023-01-28T10:59:24;103124.0;;;5.07;66.3
64023;BME280;50264;52.088;5.296;2023-01-28T11:01:03;103124.0;;;5.04;67.48
64023;BME280;50264;52.088;5.296;2023-01-28T11:04:22;103123.0;;;5.03;66.83
64023;BME280;50264;52.088;5.296;2023-01-28T11:06:00;103106.0;;;5.01;66.69
64023;BME280;50264;52.088;5.296;2023-01-28T11:07:37;103101.0;;;4.99;66.86
64023;BME280;50264;52.088;5.296;2023-01-28T11:10:59;103094.0;;;4.99;67.41
64023;BME280;50264;52.088;5.296;2023-01-28T11:12:36;103084.99999999999;;;5.15;66.87
64023;BME280;50264;52.088;5.296;2023-01-28T11:14:19;103080.0;;;5.22;67.08
64023;BME280;50264;52.088;5.296;2023-01-28T11:16:01;103078.0;;;5.31;66.31
64023;BME280;50264;52.088;5.296;2023-01-28T11:21:15;103075.0;;;5.23;66.11
64023;BME280;50264;52.088;5.296;2023-01-28T11:22:55;103063.00000000001;;;5.16;67.66
64023;BME280;50264;52.088;5.296;2023-01-28T11:24:33;103053.0;;;5.22;66.12
64023;BME280;50264;52.088;5.296;2023-01-28T11:26:16;103045.0;;;5.21;69.08
64023;BME280;50264;52.088;5.296;2023-01-28T11:29:31;103040.00000000001;;;5.18;67.41
64023;BME280;50264;52.088;5.296;2023-01-28T11:31:11;103041.00000000001;;;5.07;65.91
64023;BME280;50264;52.088;5.296;2023-01-28T11:32:54;103046.0;;;5.29;64.62
64023;BME280;50264;52.088;5.296;2023-01-28T11:34:48;103033.0;;;5.44;64.49
64023;BME280;50264;52.088;5.296;2023-01-28T11:38:16;103031.0;;;5.68;64.24